sensor_id;sensor_type;location;lat;lon;timestamp;pressure;altitude;pressure_sealevel;temperature;humidity
33163;BME280;29282;45.656;11.302;2024-03-23T00:55:53;98231.72;;;19.52;51.23
33163;BME280;29282;45.656;11.302;2024-03-23T00:58:19;98232.06;;;19.50;51.36
33163;BME280;29282;45.656;11.302;2024-03-23T01:00:45;98227.72;;;19.49;51.20
33163;BME280;29282;45.656;11.302;2024-03-23T01:03:10;98221.91;;;19.51;51.20
33163;BME280;29282;45.656;11.302;2024-03-23T01:05:36;98225.31;;;19.47;51.33
33163;BME280;29282;45.656;11.302;2024-03-23T01:08:01;98224.53;;;19.47;51.16
33163;BME280;29282;45.656;11.302;2024-03-23T01:10:27;98220.97;;;19.46;51.26
33163;BME280;29282;45.656;11.302;2024-03-23T01:12:52;98217.75;;;19.44;51.24
33163;BME280;29282;45.656;11.302;2024-03-23T01:15:18;98217.75;;;19.44;51.37
33163;BME280;29282;45.656;11.302;2024-03-23T01:17:44;98215.81;;;19.45;51.14
33163;BME280;29282;45.656;11.302;2024-03-23T01:20:09;98222.78;;;19.42;51.25
33163;BME280;29282;45.656;11.302;2024-03-23T01:22:35;98213.75;;;19.42;51.27
33163;BME280;29282;45.656;11.302;2024-03-23T01:25:01;98218.09;;;19.43;51.23
33163;BME280;29282;45.656;11.302;2024-03-23T01:27:26;98215.69;;;19.41;51.17
33163;BME280;29282;45.656;11.302;2024-03-23T01:29:55;98213.28;;;19.40;51.32
33163;BME280;29282;45.656;11.302;2024-03-23T01:32:20;98205.41;;;19.38;51.32
33163;BME280;29282;45.656;11.302;2024-03-23T01:34:46;98206.19;;;19.39;51.23
33163;BME280;29282;45.656;11.302;2024-03-23T01:37:12;98201.84;;;19.38;51.30
33163;BME280;29282;45.656;11.302;2024-03-23T01:39:40;98204.59;;;19.38;51.24
33163;BME280;29282;45.656;11.302;2024-03-23T01:42:06;98197.47;;;19.37;51.26
33163;BME280;29282;45.656;11.302;2024-03-23T01:44:31;98194.72;;;19.37;51.30
33163;BME280;29282;45.656;11.302;2024-03-23T01:46:56;98191.53;;;19.35;51.23
33163;BME280;29282;45.656;11.302;2024-03-23T01:49:22;98193.13;;;19.36;51.23
33163;BME280;29282;45.656;11.302;2024-03-23T01:51:48;98192.34;;;19.35;51.27
33163;BME280;29282;45.656;11.302;2024-03-23T01:54:13;98189.94;;;19.34;51.24
33163;BME280;29282;45.656;11.302;2024-03-23T01:56:39;98192.69;;;19.34;51.24
33163;BME280;29282;45.656;11.302;2024-03-23T01:59:05;98195.09;;;19.35;51.27
33163;BME280;29282;45.656;11.302;2024-03-23T02:01:32;98188.00;;;19.34;51.18
33163;BME280;29282;45.656;11.302;2024-03-23T02:03:57;98190.28;;;19.32;51.10
33163;BME280;29282;45.656;11.302;2024-03-23T02:06:26;98191.88;;;19.33;51.18
33163;BME280;29282;45.656;11.302;2024-03-23T02:08:53;98189.94;;;19.34;51.21
33163;BME280;29282;45.656;11.302;2024-03-23T02:11:18;98186.72;;;19.32;51.12
33163;BME280;29282;45.656;11.302;2024-03-23T02:13:44;98184.47;;;19.34;51.19
33163;BME280;29282;45.656;11.302;2024-03-23T02:16:12;98179.28;;;19.32;51.16
33163;BME280;29282;45.656;11.302;2024-03-23T02:18:41;98174.16;;;19.31;51.26
33163;BME280;29282;45.656;11.302;2024-03-23T02:21:06;98166.72;;;19.31;51.21
33163;BME280;29282;45.656;11.302;2024-03-23T02:23:32;98165.09;;;19.30;51.21
33163;BME280;29282;45.656;11.302;2024-03-23T02:25:57;98158.78;;;19.30;51.22
33163;BME280;29282;45.656;11.302;2024-03-23T02:28:23;98169.78;;;19.30;51.21
33163;BME280;29282;45.656;11.302;2024-03-23T02:30:49;98161.22;;;19.31;51.16
33163;BME280;29282;45.656;11.302;2024-03-23T02:33:15;98160.41;;;19.31;51.17
33163;BME280;29282;45.656;11.302;2024-03-23T02:35:41;98156.06;;;19.30;51.15
33163;BME280;29282;45.656;11.302;2024-03-23T02:38:07;98161.53;;;19.30;51.18
33163;BME280;29282;45.656;11.302;2024-03-23T02:40:33;98153.66;;;19.28;51.09
33163;BME280;29282;45.656;11.302;2024-03-23T02:43:01;98155.25;;;19.29;51.18
33163;BME280;29282;45.656;11.302;2024-03-23T02:45:27;98143.47;;;19.29;51.19
33163;BME280;29282;45.656;11.302;2024-03-23T02:47:52;98143.81;;;19.27;51.18
33163;BME280;29282;45.656;11.302;2024-03-23T02:50:19;98150.13;;;19.28;51.09
33163;BME280;29282;45.656;11.302;2024-03-23T02:52:46;98136.38;;;19.28;51.17
33163;BME280;29282;45.656;11.302;2024-03-23T02:55:12;98148.16;;;19.28;51.11
33163;BME280;29282;45.656;11.302;2024-03-23T02:57:37;98139.47;;;19.26;51.11
33163;BME280;29282;45.656;11.302;2024-03-23T03:00:04;98138.66;;;19.25;51.14
33163;BME280;29282;45.656;11.302;2024-03-23T03:02:30;98139.47;;;19.26;51.10
33163;BME280;29282;45.656;11.302;2024-03-23T03:04:55;98131.56;;;19.24;51.06
33163;BME280;29282;45.656;11.302;2024-03-23T03:07:21;98132.69;;;19.23;51.24
33163;BME280;29282;45.656;11.302;2024-03-23T03:09:46;98124.47;;;19.23;51.07
33163;BME280;29282;45.656;11.302;2024-03-23T03:12:15;98128.81;;;19.24;51.11
33163;BME280;29282;45.656;11.302;2024-03-23T03:14:40;98129.94;;;19.23;51.08
33163;BME280;29282;45.656;11.302;2024-03-23T03:17:06;98125.63;;;19.22;51.12
33163;BME280;29282;45.656;11.302;2024-03-23T03:19:31;98120.91;;;19.23;51.12
33163;BME280;29282;45.656;11.302;2024-03-23T03:21:57;98124.81;;;19.22;51.09
33163;BME280;29282;45.656;11.302;2024-03-23T03:24:23;98129.50;;;19.21;51.11
33163;BME280;29282;45.656;11.302;2024-03-23T03:26:49;98128.34;;;19.22;51.09
33163;BME280;29282;45.656;11.302;2024-03-23T03:29:17;98121.28;;;19.21;51.09
33163;BME280;29282;45.656;11.302;2024-03-23T03:31:43;98123.22;;;19.21;51.15
33163;BME280;29282;45.656;11.302;2024-03-23T03:34:09;98120.47;;;19.21;51.25
33163;BME280;29282;45.656;11.302;2024-03-23T03:36:34;98116.09;;;19.20;51.07
33163;BME280;29282;45.656;11.302;2024-03-23T03:39:00;98118.84;;;19.20;51.13
33163;BME280;29282;45.656;11.302;2024-03-23T03:41:25;98114.50;;;19.19;51.06
33163;BME280;29282;45.656;11.302;2024-03-23T03:43:51;98107.44;;;19.18;51.10
33163;BME280;29282;45.656;11.302;2024-03-23T03:46:16;98109.81;;;19.19;51.21
33163;BME280;29282;45.656;11.302;2024-03-23T03:48:42;98108.22;;;19.18;51.13
33163;BME280;29282;45.656;11.302;2024-03-23T03:51:10;98109.38;;;19.17;51.10
33163;BME280;29282;45.656;11.302;2024-03-23T03:53:36;98099.06;;;19.14;51.18
33163;BME280;29282;45.656;11.302;2024-03-23T03:56:02;98097.94;;;19.15;51.13
33163;BME280;29282;45.656;11.302;2024-03-23T03:58:28;98097.56;;;19.17;51.08
33163;BME280;29282;45.656;11.302;2024-03-23T04:00:53;98095.19;;;19.15;51.16
33163;BME280;29282;45.656;11.302;2024-03-23T04:03:19;98095.97;;;19.16;51.14
33163;BME280;29282;45.656;11.302;2024-03-23T04:05:53;98098.25;;;19.14;51.08
33163;BME280;29282;45.656;11.302;2024-03-23T04:08:19;98097.47;;;19.13;51.16
33163;BME280;29282;45.656;11.302;2024-03-23T04:10:45;98100.19;;;19.13;51.02
33163;BME280;29282;45.656;11.302;2024-03-23T04:13:11;98087.63;;;19.12;51.02
33163;BME280;29282;45.656;11.302;2024-03-23T04:15:37;98087.63;;;19.12;51.21
33163;BME280;29282;45.656;11.302;2024-03-23T04:18:03;98084.09;;;19.12;51.07
33163;BME280;29282;45.656;11.302;2024-03-23T04:20:28;98086.84;;;19.12;51.16
33163;BME280;29282;45.656;11.302;2024-03-23T04:22:53;98079.75;;;19.11;51.19
33163;BME280;29282;45.656;11.302;2024-03-23T04:25:19;98079.75;;;19.11;51.10
33163;BME280;29282;45.656;11.302;2024-03-23T04:27:45;98085.25;;;19.11;51.08
33163;BME280;29282;45.656;11.302;2024-03-23T04:30:11;98080.88;;;19.10;51.19
33163;BME280;29282;45.656;11.302;2024-03-23T04:32:37;98067.94;;;19.10;51.16
33163;BME280;29282;45.656;11.302;2024-03-23T04:35:03;98064.75;;;19.08;51.09
33163;BME280;29282;45.656;11.302;2024-03-23T04:37:32;98058.09;;;19.09;51.08
33163;BME280;29282;45.656;11.302;2024-03-23T04:40:03;98060.06;;;19.09;51.13
33163;BME280;29282;45.656;11.302;2024-03-23T04:42:29;98062.00;;;19.08;51.07
33163;BME280;29282;45.656;11.302;2024-03-23T04:44:55;98062.34;;;19.07;51.01
33163;BME280;29282;45.656;11.302;2024-03-23T04:47:20;98068.63;;;19.07;51.11
33163;BME280;29282;45.656;11.302;2024-03-23T04:49:46;98082.81;;;19.09;51.14
33163;BME280;29282;45.656;11.302;2024-03-23T04:52:11;98081.22;;;19.08;51.12
33163;BME280;29282;45.656;11.302;2024-03-23T04:54:37;98076.84;;;19.07;51.08
33163;BME280;29282;45.656;11.302;2024-03-23T04:57:03;98072.53;;;19.06;51.03
33163;BME280;29282;45.656;11.302;2024-03-23T04:59:28;98075.25;;;19.06;51.09
33163;BME280;29282;45.656;11.302;2024-03-23T05:01:54;98066.22;;;19.06;51.06
33163;BME280;29282;45.656;11.302;2024-03-23T05:04:19;98062.69;;;19.05;51.11
33163;BME280;29282;45.656;11.302;2024-03-23T05:06:45;98063.84;;;19.04;51.05
33163;BME280;29282;45.656;11.302;2024-03-23T05:09:10;98061.09;;;19.04;51.08
33163;BME280;29282;45.656;11.302;2024-03-23T05:11:39;98055.59;;;19.04;51.07
33163;BME280;29282;45.656;11.302;2024-03-23T05:14:05;98053.66;;;19.05;51.07
33163;BME280;29282;45.656;11.302;2024-03-23T05:16:30;98046.53;;;19.04;51.06
33163;BME280;29282;45.656;11.302;2024-03-23T05:18:56;98055.59;;;19.04;51.07
33163;BME280;29282;45.656;11.302;2024-03-23T05:21:21;98047.38;;;19.04;51.05
33163;BME280;29282;45.656;11.302;2024-03-23T05:23:47;98043.00;;;19.03;50.98
33163;BME280;29282;45.656;11.302;2024-03-23T05:26:13;98029.63;;;19.01;51.06
33163;BME280;29282;45.656;11.302;2024-03-23T05:28:39;98031.59;;;19.01;51.02
33163;BME280;29282;45.656;11.302;2024-03-23T05:31:04;98030.44;;;19.02;51.08
33163;BME280;29282;45.656;11.302;2024-03-23T05:33:32;98031.59;;;19.01;51.04
33163;BME280;29282;45.656;11.302;2024-03-23T05:36:00;98029.63;;;19.01;51.08
33163;BME280;29282;45.656;11.302;2024-03-23T05:38:26;98028.84;;;19.01;51.11
33163;BME280;29282;45.656;11.302;2024-03-23T05:40:58;98035.13;;;19.01;51.10
33163;BME280;29282;45.656;11.302;2024-03-23T05:43:24;98033.50;;;19.00;51.08
33163;BME280;29282;45.656;11.302;2024-03-23T05:45:57;98037.88;;;19.01;51.16
33163;BME280;29282;45.656;11.302;2024-03-23T05:48:22;98030.75;;;19.00;51.21
33163;BME280;29282;45.656;11.302;2024-03-23T05:50:49;98032.72;;;19.00;51.00
33163;BME280;29282;45.656;11.302;2024-03-23T05:53:15;98029.97;;;19.00;50.97
33163;BME280;29282;45.656;11.302;2024-03-23T05:55:41;98029.16;;;18.99;51.08
33163;BME280;29282;45.656;11.302;2024-03-23T05:58:07;98026.41;;;18.99;51.06
33163;BME280;29282;45.656;11.302;2024-03-23T06:00:33;98022.88;;;18.99;50.81
33163;BME280;29282;45.656;11.302;2024-03-23T06:02:58;98020.94;;;18.99;51.05
33163;BME280;29282;45.656;11.302;2024-03-23T06:05:24;98025.63;;;18.99;51.03
33163;BME280;29282;45.656;11.302;2024-03-23T06:07:49;98023.69;;;18.99;51.10
33163;BME280;29282;45.656;11.302;2024-03-23T06:10:15;98020.94;;;18.99;51.17
33163;BME280;29282;45.656;11.302;2024-03-23T06:12:41;98019.34;;;18.98;51.03
33163;BME280;29282;45.656;11.302;2024-03-23T06:15:07;98015.44;;;18.99;51.03
33163;BME280;29282;45.656;11.302;2024-03-23T06:17:39;98011.91;;;18.99;50.99
33163;BME280;29282;45.656;11.302;2024-03-23T06:20:05;98014.19;;;18.97;51.06
33163;BME280;29282;45.656;11.302;2024-03-23T06:22:32;98012.25;;;18.97;51.00
33163;BME280;29282;45.656;11.302;2024-03-23T06:24:57;98002.88;;;18.98;50.79
33163;BME280;29282;45.656;11.302;2024-03-23T06:27:23;98010.75;;;19.00;50.98
33163;BME280;29282;45.656;11.302;2024-03-23T06:29:48;98017.16;;;19.04;50.83
33163;BME280;29282;45.656;11.302;2024-03-23T06:32:17;98010.97;;;19.07;50.75
33163;BME280;29282;45.656;11.302;2024-03-23T06:34:43;98013.00;;;19.10;50.86
33163;BME280;29282;45.656;11.302;2024-03-23T06:37:09;98013.13;;;19.14;50.60
33163;BME280;29282;45.656;11.302;2024-03-23T06:39:38;98007.78;;;19.17;50.71
33163;BME280;29282;45.656;11.302;2024-03-23T06:42:04;98006.25;;;19.20;50.66
33163;BME280;29282;45.656;11.302;2024-03-23T06:44:30;98003.50;;;19.20;50.65
33163;BME280;29282;45.656;11.302;2024-03-23T06:46:58;98010.63;;;19.21;50.69
33163;BME280;29282;45.656;11.302;2024-03-23T06:49:24;97996.53;;;19.22;50.71
33163;BME280;29282;45.656;11.302;2024-03-23T06:51:50;98001.69;;;19.24;50.60
33163;BME280;29282;45.656;11.302;2024-03-23T06:54:19;97999.38;;;19.26;50.60
33163;BME280;29282;45.656;11.302;2024-03-23T06:56:45;97995.84;;;19.25;50.60
33163;BME280;29282;45.656;11.302;2024-03-23T06:59:10;97987.97;;;19.24;50.72
33163;BME280;29282;45.656;11.302;2024-03-23T07:01:36;97987.25;;;19.27;50.77
33163;BME280;29282;45.656;11.302;2024-03-23T07:04:02;97985.31;;;19.28;50.55
33163;BME280;29282;45.656;11.302;2024-03-23T07:06:29;97983.69;;;19.27;50.67
33163;BME280;29282;45.656;11.302;2024-03-23T07:08:55;97981.78;;;19.27;50.60
33163;BME280;29282;45.656;11.302;2024-03-23T07:11:22;97978.19;;;19.27;50.58
33163;BME280;29282;45.656;11.302;2024-03-23T07:13:54;97979.81;;;19.28;50.56
33163;BME280;29282;45.656;11.302;2024-03-23T07:16:23;97973.88;;;19.25;50.58
33163;BME280;29282;45.656;11.302;2024-03-23T07:18:50;97973.06;;;19.25;50.67
33163;BME280;29282;45.656;11.302;2024-03-23T07:21:16;97963.66;;;19.26;50.60
33163;BME280;29282;45.656;11.302;2024-03-23T07:23:44;97957.84;;;19.28;50.65
33163;BME280;29282;45.656;11.302;2024-03-23T07:26:10;97965.72;;;19.29;50.63
33163;BME280;29282;45.656;11.302;2024-03-23T07:28:36;97961.03;;;19.30;50.52
33163;BME280;29282;45.656;11.302;2024-03-23T07:31:03;97962.66;;;19.31;50.55
33163;BME280;29282;45.656;11.302;2024-03-23T07:33:29;97950.84;;;19.30;50.61
33163;BME280;29282;45.656;11.302;2024-03-23T07:35:54;97952.09;;;19.33;50.65
33163;BME280;29282;45.656;11.302;2024-03-23T07:38:20;97960.34;;;19.33;50.67
33163;BME280;29282;45.656;11.302;2024-03-23T07:40:45;97948.53;;;19.32;50.60
33163;BME280;29282;45.656;11.302;2024-03-23T07:43:11;97955.31;;;19.35;50.52
33163;BME280;29282;45.656;11.302;2024-03-23T07:45:37;97953.53;;;19.42;50.42
33163;BME280;29282;45.656;11.302;2024-03-23T07:48:04;97961.19;;;19.49;50.33
33163;BME280;29282;45.656;11.302;2024-03-23T07:50:30;97950.50;;;19.60;50.08
33163;BME280;29282;45.656;11.302;2024-03-23T07:52:55;97940.63;;;19.71;49.96
33163;BME280;29282;45.656;11.302;2024-03-23T07:55:21;97928.75;;;19.83;49.66
33163;BME280;29282;45.656;11.302;2024-03-23T07:57:46;97934.91;;;19.92;49.38
33163;BME280;29282;45.656;11.302;2024-03-23T08:00:15;97934.75;;;20.01;49.25
33163;BME280;29282;45.656;11.302;2024-03-23T08:02:40;97932.63;;;20.10;49.29
33163;BME280;29282;45.656;11.302;2024-03-23T08:05:06;97925.69;;;20.16;48.89
33163;BME280;29282;45.656;11.302;2024-03-23T08:07:32;97918.78;;;20.22;48.98
33163;BME280;29282;45.656;11.302;2024-03-23T08:10:01;97914.25;;;20.30;48.84
33163;BME280;29282;45.656;11.302;2024-03-23T08:12:28;97907.59;;;20.31;48.90
33163;BME280;29282;45.656;11.302;2024-03-23T08:14:54;97914.44;;;20.37;48.85
33163;BME280;29282;45.656;11.302;2024-03-23T08:17:19;97914.50;;;20.40;48.84
33163;BME280;29282;45.656;11.302;2024-03-23T08:19:45;97905.47;;;20.40;48.91
33163;BME280;29282;45.656;11.302;2024-03-23T08:22:10;97903.13;;;20.42;48.60
33163;BME280;29282;45.656;11.302;2024-03-23T08:24:36;97902.78;;;20.44;48.62
33163;BME280;29282;45.656;11.302;2024-03-23T08:27:01;97902.00;;;20.43;48.73
33163;BME280;29282;45.656;11.302;2024-03-23T08:29:27;97886.63;;;20.42;48.90
33163;BME280;29282;45.656;11.302;2024-03-23T08:31:52;97883.88;;;20.42;48.91
33163;BME280;29282;45.656;11.302;2024-03-23T08:34:18;97887.09;;;20.44;48.72
33163;BME280;29282;45.656;11.302;2024-03-23T08:36:43;97904.75;;;20.43;49.04
33163;BME280;29282;45.656;11.302;2024-03-23T08:39:09;97901.19;;;20.42;48.85
33163;BME280;29282;45.656;11.302;2024-03-23T08:41:34;97900.84;;;20.44;48.86
33163;BME280;29282;45.656;11.302;2024-03-23T08:44:00;97901.19;;;20.42;49.08
33163;BME280;29282;45.656;11.302;2024-03-23T08:46:25;97905.88;;;20.42;48.99
33163;BME280;29282;45.656;11.302;2024-03-23T08:48:51;97893.75;;;20.43;48.91
33163;BME280;29282;45.656;11.302;2024-03-23T08:51:18;97890.16;;;20.42;49.14
33163;BME280;29282;45.656;11.302;2024-03-23T08:53:44;97883.16;;;20.45;49.06
33163;BME280;29282;45.656;11.302;2024-03-23T08:56:11;97887.16;;;20.48;49.03
33163;BME280;29282;45.656;11.302;2024-03-23T08:58:37;97881.28;;;20.49;48.89
33163;BME280;29282;45.656;11.302;2024-03-23T09:01:08;97883.34;;;20.52;48.83
33163;BME280;29282;45.656;11.302;2024-03-23T09:03:34;97878.66;;;20.53;48.94
33163;BME280;29282;45.656;11.302;2024-03-23T09:06:00;97862.94;;;20.53;48.93
33163;BME280;29282;45.656;11.302;2024-03-23T09:08:27;97870.03;;;20.54;49.23
33163;BME280;29282;45.656;11.302;2024-03-23T09:10:52;97866.72;;;20.64;48.46
33163;BME280;29282;45.656;11.302;2024-03-23T09:13:18;97866.97;;;20.75;48.48
33163;BME280;29282;45.656;11.302;2024-03-23T09:15:49;97866.31;;;20.82;48.61
33163;BME280;29282;45.656;11.302;2024-03-23T09:18:14;97858.91;;;20.86;48.45
33163;BME280;29282;45.656;11.302;2024-03-23T09:20:40;97869.59;;;20.87;48.34
33163;BME280;29282;45.656;11.302;2024-03-23T09:23:05;97860.22;;;20.92;48.52
33163;BME280;29282;45.656;11.302;2024-03-23T09:25:31;97856.28;;;20.90;48.83
33163;BME280;29282;45.656;11.302;2024-03-23T09:27:58;97845.91;;;20.83;49.02
33163;BME280;29282;45.656;11.302;2024-03-23T09:30:23;97846.19;;;20.78;49.39
33163;BME280;29282;45.656;11.302;2024-03-23T09:32:49;97849.31;;;20.76;49.28
33163;BME280;29282;45.656;11.302;2024-03-23T09:35:14;97846.91;;;20.75;49.49
33163;BME280;29282;45.656;11.302;2024-03-23T09:37:40;97848.41;;;20.72;49.63
33163;BME280;29282;45.656;11.302;2024-03-23T09:40:12;97849.56;;;20.71;49.64
33163;BME280;29282;45.656;11.302;2024-03-23T09:42:37;97850.75;;;20.70;49.90
33163;BME280;29282;45.656;11.302;2024-03-23T09:45:05;97833.31;;;20.66;49.82
33163;BME280;29282;45.656;11.302;2024-03-23T09:47:34;97834.34;;;20.58;49.97
33163;BME280;29282;45.656;11.302;2024-03-23T09:50:00;97839.47;;;20.59;49.95
33163;BME280;29282;45.656;11.302;2024-03-23T09:52:26;97829.28;;;20.60;50.05
33163;BME280;29282;45.656;11.302;2024-03-23T09:54:54;97831.59;;;20.58;50.07
33163;BME280;29282;45.656;11.302;2024-03-23T09:57:20;97832.69;;;20.53;50.11
33163;BME280;29282;45.656;11.302;2024-03-23T09:59:48;97836.22;;;20.54;50.14
33163;BME280;29282;45.656;11.302;2024-03-23T10:02:15;97833.47;;;20.54;50.39
33163;BME280;29282;45.656;11.302;2024-03-23T10:04:42;97828.69;;;20.51;50.41
33163;BME280;29282;45.656;11.302;2024-03-23T10:07:15;97823.88;;;20.48;50.29
33163;BME280;29282;45.656;11.302;2024-03-23T10:09:42;97814.38;;;20.45;50.59
33163;BME280;29282;45.656;11.302;2024-03-23T10:12:13;97813.56;;;20.45;50.55
33163;BME280;29282;45.656;11.302;2024-03-23T10:14:42;97819.88;;;20.45;50.39
33163;BME280;29282;45.656;11.302;2024-03-23T10:17:22;97802.13;;;20.42;50.37
33163;BME280;29282;45.656;11.302;2024-03-23T10:19:55;97794.25;;;20.41;50.39
33163;BME280;29282;45.656;11.302;2024-03-23T10:22:22;97791.50;;;20.41;50.45
33163;BME280;29282;45.656;11.302;2024-03-23T10:24:49;97795.75;;;20.38;50.48
33163;BME280;29282;45.656;11.302;2024-03-23T10:27:16;97785.47;;;20.35;50.45
33163;BME280;29282;45.656;11.302;2024-03-23T10:29:43;97772.88;;;20.34;50.50
33163;BME280;29282;45.656;11.302;2024-03-23T10:32:16;97774.44;;;20.35;50.50
33163;BME280;29282;45.656;11.302;2024-03-23T10:34:42;97767.00;;;20.36;50.45
33163;BME280;29282;45.656;11.302;2024-03-23T10:37:08;97764.97;;;20.33;50.46
33163;BME280;29282;45.656;11.302;2024-03-23T10:39:38;97757.88;;;20.32;50.54
33163;BME280;29282;45.656;11.302;2024-03-23T10:42:08;97753.97;;;20.33;50.33
33163;BME280;29282;45.656;11.302;2024-03-23T10:44:34;97757.88;;;20.32;50.43
33163;BME280;29282;45.656;11.302;2024-03-23T10:47:03;97751.94;;;20.30;50.68
33163;BME280;29282;45.656;11.302;2024-03-23T10:49:33;97755.03;;;20.28;50.55
33163;BME280;29282;45.656;11.302;2024-03-23T10:52:01;97749.19;;;20.30;50.43
33163;BME280;29282;45.656;11.302;2024-03-23T10:54:27;97738.19;;;20.30;50.36
33163;BME280;29282;45.656;11.302;2024-03-23T10:59:30;97724.72;;;20.25;50.38
33163;BME280;29282;45.656;11.302;2024-03-23T11:01:57;97722.75;;;20.25;50.49
33163;BME280;29282;45.656;11.302;2024-03-23T11:04:36;97719.66;;;20.27;50.41
33163;BME280;29282;45.656;11.302;2024-03-23T11:09:49;97719.59;;;20.23;50.39
33163;BME280;29282;45.656;11.302;2024-03-23T11:14:50;97709.38;;;20.24;50.36
33163;BME280;29282;45.656;11.302;2024-03-23T11:17:19;97704.22;;;20.22;50.57
33163;BME280;29282;45.656;11.302;2024-03-23T11:19:58;97693.59;;;20.21;50.49
33163;BME280;29282;45.656;11.302;2024-03-23T11:22:41;97687.38;;;20.24;50.61
33163;BME280;29282;45.656;11.302;2024-03-23T11:25:14;97672.81;;;20.23;50.48
33163;BME280;29282;45.656;11.302;2024-03-23T11:27:40;97683.00;;;20.23;50.40
33163;BME280;29282;45.656;11.302;2024-03-23T11:30:24;97682.22;;;20.22;50.43
33163;BME280;29282;45.656;11.302;2024-03-23T11:32:59;97687.28;;;20.20;50.40
33163;BME280;29282;45.656;11.302;2024-03-23T11:35:26;97682.13;;;20.18;50.43
33163;BME280;29282;45.656;11.302;2024-03-23T11:40:33;97669.81;;;20.12;50.35
33163;BME280;29282;45.656;11.302;2024-03-23T11:43:04;97657.69;;;20.13;50.20
33163;BME280;29282;45.656;11.302;2024-03-23T11:45:37;97648.72;;;20.16;49.87
33163;BME280;29282;45.656;11.302;2024-03-23T11:48:05;97644.44;;;20.19;49.63
33163;BME280;29282;45.656;11.302;2024-03-23T11:50:31;97628.72;;;20.19;49.66
33163;BME280;29282;45.656;11.302;2024-03-23T11:53:12;97637.28;;;20.14;49.81
33163;BME280;29282;45.656;11.302;2024-03-23T11:55:51;97623.44;;;20.11;50.05
33163;BME280;29282;45.656;11.302;2024-03-23T11:58:18;97615.91;;;20.08;50.00
33163;BME280;29282;45.656;11.302;2024-03-23T12:00:52;97610.75;;;20.06;50.02
33163;BME280;29282;45.656;11.302;2024-03-23T12:03:18;97609.63;;;20.07;50.17
33163;BME280;29282;45.656;11.302;2024-03-23T12:05:50;97600.13;;;20.05;50.08
33163;BME280;29282;45.656;11.302;2024-03-23T12:08:20;97585.16;;;20.02;50.19
33163;BME280;29282;45.656;11.302;2024-03-23T12:10:50;97594.56;;;20.01;50.22
33163;BME280;29282;45.656;11.302;2024-03-23T12:13:20;97593.78;;;20.01;50.37
33163;BME280;29282;45.656;11.302;2024-03-23T12:15:47;97585.88;;;19.99;50.43
33163;BME280;29282;45.656;11.302;2024-03-23T12:18:13;97587.03;;;19.98;50.41
33163;BME280;29282;45.656;11.302;2024-03-23T12:20:39;97576.38;;;19.97;50.42
33163;BME280;29282;45.656;11.302;2024-03-23T12:23:12;97576.38;;;19.97;50.34
33163;BME280;29282;45.656;11.302;2024-03-23T12:25:41;97575.59;;;19.96;50.45
33163;BME280;29282;45.656;11.302;2024-03-23T12:28:07;97567.72;;;19.94;50.56
33163;BME280;29282;45.656;11.302;2024-03-23T12:30:40;97553.19;;;19.94;50.76
33163;BME280;29282;45.656;11.302;2024-03-23T12:33:06;97547.69;;;19.94;50.54
33163;BME280;29282;45.656;11.302;2024-03-23T12:35:32;97540.59;;;19.93;50.52
33163;BME280;29282;45.656;11.302;2024-03-23T12:37:57;97539.00;;;19.92;50.38
33163;BME280;29282;45.656;11.302;2024-03-23T12:40:23;97533.50;;;19.92;50.69
33163;BME280;29282;45.656;11.302;2024-03-23T12:42:49;97528.38;;;19.90;50.56
33163;BME280;29282;45.656;11.302;2024-03-23T12:45:14;97533.06;;;19.90;50.70
33163;BME280;29282;45.656;11.302;2024-03-23T12:47:40;97522.44;;;19.88;50.67
33163;BME280;29282;45.656;11.302;2024-03-23T12:50:06;97504.38;;;19.87;50.75
33163;BME280;29282;45.656;11.302;2024-03-23T12:52:32;97511.81;;;19.87;50.54
33163;BME280;29282;45.656;11.302;2024-03-23T12:54:58;97503.91;;;19.85;50.75
33163;BME280;29282;45.656;11.302;2024-03-23T12:57:25;97506.66;;;19.85;50.67
33163;BME280;29282;45.656;11.302;2024-03-23T12:59:53;97503.91;;;19.85;50.65
33163;BME280;29282;45.656;11.302;2024-03-23T13:02:20;97503.13;;;19.85;50.83
33163;BME280;29282;45.656;11.302;2024-03-23T13:04:49;97496.06;;;19.84;50.70
33163;BME280;29282;45.656;11.302;2024-03-23T13:07:14;97494.44;;;19.83;50.69
33163;BME280;29282;45.656;11.302;2024-03-23T13:09:40;97486.97;;;19.83;50.72
33163;BME280;29282;45.656;11.302;2024-03-23T13:12:06;97492.06;;;19.81;50.76
33163;BME280;29282;45.656;11.302;2024-03-23T13:14:32;97489.31;;;19.81;50.79
33163;BME280;29282;45.656;11.302;2024-03-23T13:16:57;97488.09;;;19.79;50.97
33163;BME280;29282;45.656;11.302;2024-03-23T13:19:23;97481.78;;;19.78;50.65
33163;BME280;29282;45.656;11.302;2024-03-23T13:21:55;97482.13;;;19.77;50.80
33163;BME280;29282;45.656;11.302;2024-03-23T13:24:24;97483.75;;;19.78;50.88
33163;BME280;29282;45.656;11.302;2024-03-23T13:26:51;97475.84;;;19.76;50.98
33163;BME280;29282;45.656;11.302;2024-03-23T13:29:17;97477.81;;;19.76;50.97
33163;BME280;29282;45.656;11.302;2024-03-23T13:31:42;97465.22;;;19.75;50.78
33163;BME280;29282;45.656;11.302;2024-03-23T13:34:08;97458.94;;;19.74;50.87
33163;BME280;29282;45.656;11.302;2024-03-23T13:36:33;97454.25;;;19.75;50.90
33163;BME280;29282;45.656;11.302;2024-03-23T13:38:59;97452.66;;;19.74;50.95
33163;BME280;29282;45.656;11.302;2024-03-23T13:41:24;97444.75;;;19.72;51.00
33163;BME280;29282;45.656;11.302;2024-03-23T13:43:50;97444.75;;;19.72;50.93
33163;BME280;29282;45.656;11.302;2024-03-23T13:46:15;97442.81;;;19.73;51.01
33163;BME280;29282;45.656;11.302;2024-03-23T13:48:41;97431.03;;;19.72;50.98
33163;BME280;29282;45.656;11.302;2024-03-23T13:51:07;97432.19;;;19.71;50.95
33163;BME280;29282;45.656;11.302;2024-03-23T13:53:33;97425.91;;;19.70;50.95